sensor_id;sensor_type;location;lat;lon;timestamp;P1;durP1;ratioP1;P2;durP2;ratioP2
434;SDS011;204;48.942;9.256;2022-07-15T00:00:33;3.63;;;2.37;;
434;SDS011;204;48.942;9.256;2022-07-15T00:02:59;3.70;;;3.10;;
434;SDS011;204;48.942;9.256;2022-07-15T00:05:25;6.57;;;2.40;;
434;SDS011;204;48.942;9.256;2022-07-15T00:07:51;3.30;;;2.03;;
434;SDS011;204;48.942;9.256;2022-07-15T00:10:16;3.13;;;2.10;;
434;SDS011;204;48.942;9.256;2022-07-15T00:12:52;2.50;;;2.40;;
434;SDS011;204;48.942;9.256;2022-07-15T00:15:24;4.60;;;2.60;;
434;SDS011;204;48.942;9.256;2022-07-15T00:17:52;4.43;;;2.47;;
434;SDS011;204;48.942;9.256;2022-07-15T00:20:18;2.50;;;2.30;;
434;SDS011;204;48.942;9.256;2022-07-15T00:22:45;5.03;;;2.33;;
434;SDS011;204;48.942;9.256;2022-07-15T00:25:11;4.50;;;2.93;;
434;SDS011;204;48.942;9.256;2022-07-15T00:27:51;3.40;;;2.60;;
434;SDS011;204;48.942;9.256;2022-07-15T00:30:24;2.33;;;1.80;;
434;SDS011;204;48.942;9.256;2022-07-15T00:32:54;5.10;;;2.50;;
434;SDS011;204;48.942;9.256;2022-07-15T00:35:20;2.33;;;2.17;;
434;SDS011;204;48.942;9.256;2022-07-15T00:37:46;3.40;;;2.13;;
434;SDS011;204;48.942;9.256;2022-07-15T00:40:11;2.50;;;2.30;;
434;SDS011;204;48.942;9.256;2022-07-15T00:42:37;3.70;;;2.20;;
434;SDS011;204;48.942;9.256;2022-07-15T00:45:09;4.07;;;2.80;;
434;SDS011;204;48.942;9.256;2022-07-15T00:47:36;3.90;;;2.67;;
434;SDS011;204;48.942;9.256;2022-07-15T00:50:01;3.33;;;3.17;;
434;SDS011;204;48.942;9.256;2022-07-15T00:52:27;2.23;;;2.10;;
434;SDS011;204;48.942;9.256;2022-07-15T00:54:54;3.67;;;2.67;;
434;SDS011;204;48.942;9.256;2022-07-15T00:57:23;4.07;;;2.60;;
434;SDS011;204;48.942;9.256;2022-07-15T00:59:51;5.10;;;2.93;;
434;SDS011;204;48.942;9.256;2022-07-15T01:02:18;6.50;;;2.80;;
434;SDS011;204;48.942;9.256;2022-07-15T01:04:45;4.07;;;2.50;;
434;SDS011;204;48.942;9.256;2022-07-15T01:07:12;2.83;;;2.13;;
434;SDS011;204;48.942;9.256;2022-07-15T01:09:38;3.57;;;3.03;;
434;SDS011;204;48.942;9.256;2022-07-15T01:12:03;4.17;;;3.30;;
434;SDS011;204;48.942;9.256;2022-07-15T01:14:29;3.40;;;2.33;;
434;SDS011;204;48.942;9.256;2022-07-15T01:16:55;3.77;;;2.70;;
434;SDS011;204;48.942;9.256;2022-07-15T01:19:21;6.13;;;3.50;;
434;SDS011;204;48.942;9.256;2022-07-15T01:21:46;4.07;;;2.93;;
434;SDS011;204;48.942;9.256;2022-07-15T01:24:12;4.33;;;2.80;;
434;SDS011;204;48.942;9.256;2022-07-15T01:26:38;3.20;;;2.60;;
434;SDS011;204;48.942;9.256;2022-07-15T01:29:03;4.77;;;3.47;;
434;SDS011;204;48.942;9.256;2022-07-15T01:31:29;4.63;;;2.60;;
434;SDS011;204;48.942;9.256;2022-07-15T01:33:54;4.40;;;3.33;;
434;SDS011;204;48.942;9.256;2022-07-15T01:36:20;4.97;;;3.33;;
434;SDS011;204;48.942;9.256;2022-07-15T01:38:46;4.20;;;3.20;;
434;SDS011;204;48.942;9.256;2022-07-15T01:41:11;6.00;;;4.20;;
434;SDS011;204;48.942;9.256;2022-07-15T01:43:37;7.77;;;2.90;;
434;SDS011;204;48.942;9.256;2022-07-15T01:46:02;3.13;;;2.80;;
434;SDS011;204;48.942;9.256;2022-07-15T01:48:28;3.50;;;2.70;;
434;SDS011;204;48.942;9.256;2022-07-15T01:51:12;4.03;;;3.43;;
434;SDS011;204;48.942;9.256;2022-07-15T01:53:38;4.60;;;3.33;;
434;SDS011;204;48.942;9.256;2022-07-15T01:56:03;4.00;;;3.40;;
434;SDS011;204;48.942;9.256;2022-07-15T01:58:29;6.53;;;3.33;;
434;SDS011;204;48.942;9.256;2022-07-15T02:00:55;5.80;;;3.00;;
434;SDS011;204;48.942;9.256;2022-07-15T02:03:20;4.60;;;3.53;;
434;SDS011;204;48.942;9.256;2022-07-15T02:05:46;3.50;;;2.90;;
434;SDS011;204;48.942;9.256;2022-07-15T02:08:12;3.93;;;3.60;;
434;SDS011;204;48.942;9.256;2022-07-15T02:10:37;3.37;;;3.17;;
434;SDS011;204;48.942;9.256;2022-07-15T02:13:09;4.63;;;3.30;;
434;SDS011;204;48.942;9.256;2022-07-15T02:15:36;4.10;;;3.00;;
434;SDS011;204;48.942;9.256;2022-07-15T02:18:03;5.20;;;3.03;;
434;SDS011;204;48.942;9.256;2022-07-15T02:20:29;4.50;;;2.95;;
434;SDS011;204;48.942;9.256;2022-07-15T02:22:55;3.87;;;3.67;;
434;SDS011;204;48.942;9.256;2022-07-15T02:25:23;3.13;;;2.93;;
434;SDS011;204;48.942;9.256;2022-07-15T02:27:52;3.35;;;3.20;;
434;SDS011;204;48.942;9.256;2022-07-15T02:30:23;4.75;;;3.08;;
434;SDS011;204;48.942;9.256;2022-07-15T02:32:50;5.88;;;4.00;;
434;SDS011;204;48.942;9.256;2022-07-15T02:35:15;3.93;;;3.23;;
434;SDS011;204;48.942;9.256;2022-07-15T02:37:41;5.77;;;3.47;;
434;SDS011;204;48.942;9.256;2022-07-15T02:40:07;5.97;;;3.37;;
434;SDS011;204;48.942;9.256;2022-07-15T02:42:33;3.33;;;3.13;;
434;SDS011;204;48.942;9.256;2022-07-15T02:44:59;5.93;;;2.90;;
434;SDS011;204;48.942;9.256;2022-07-15T02:47:25;5.20;;;3.77;;
434;SDS011;204;48.942;9.256;2022-07-15T02:49:50;5.40;;;3.90;;
434;SDS011;204;48.942;9.256;2022-07-15T02:52:16;3.90;;;3.70;;
434;SDS011;204;48.942;9.256;2022-07-15T02:54:41;4.90;;;3.67;;
434;SDS011;204;48.942;9.256;2022-07-15T02:57:07;5.70;;;3.97;;
434;SDS011;204;48.942;9.256;2022-07-15T02:59:32;5.80;;;3.70;;
434;SDS011;204;48.942;9.256;2022-07-15T03:01:58;4.03;;;3.53;;
434;SDS011;204;48.942;9.256;2022-07-15T03:04:24;3.90;;;3.80;;
434;SDS011;204;48.942;9.256;2022-07-15T03:06:49;3.53;;;3.37;;
434;SDS011;204;48.942;9.256;2022-07-15T03:09:15;4.40;;;4.10;;
434;SDS011;204;48.942;9.256;2022-07-15T03:11:41;5.17;;;4.60;;
434;SDS011;204;48.942;9.256;2022-07-15T03:14:06;4.57;;;3.87;;
434;SDS011;204;48.942;9.256;2022-07-15T03:16:32;5.43;;;4.23;;
434;SDS011;204;48.942;9.256;2022-07-15T03:18:58;8.52;;;4.55;;
434;SDS011;204;48.942;9.256;2022-07-15T03:21:24;5.13;;;4.30;;
434;SDS011;204;48.942;9.256;2022-07-15T03:23:49;7.00;;;4.10;;
434;SDS011;204;48.942;9.256;2022-07-15T03:26:15;5.93;;;4.30;;
434;SDS011;204;48.942;9.256;2022-07-15T03:28:41;7.00;;;3.83;;
434;SDS011;204;48.942;9.256;2022-07-15T03:31:06;5.43;;;3.57;;
434;SDS011;204;48.942;9.256;2022-07-15T03:33:32;5.93;;;3.80;;
434;SDS011;204;48.942;9.256;2022-07-15T03:35:57;4.00;;;3.80;;
434;SDS011;204;48.942;9.256;2022-07-15T03:38:23;3.83;;;3.63;;
434;SDS011;204;48.942;9.256;2022-07-15T03:40:48;3.50;;;3.30;;
434;SDS011;204;48.942;9.256;2022-07-15T03:43:14;4.47;;;4.13;;
434;SDS011;204;48.942;9.256;2022-07-15T03:45:40;3.77;;;3.60;;
434;SDS011;204;48.942;9.256;2022-07-15T03:48:06;4.87;;;4.57;;
434;SDS011;204;48.942;9.256;2022-07-15T03:50:31;4.90;;;3.50;;
434;SDS011;204;48.942;9.256;2022-07-15T03:52:57;5.57;;;4.30;;
434;SDS011;204;48.942;9.256;2022-07-15T03:55:22;4.20;;;3.70;;
434;SDS011;204;48.942;9.256;2022-07-15T03:57:48;4.60;;;3.17;;
434;SDS011;204;48.942;9.256;2022-07-15T04:00:14;5.17;;;3.57;;
434;SDS011;204;48.942;9.256;2022-07-15T04:02:40;4.73;;;3.90;;
434;SDS011;204;48.942;9.256;2022-07-15T04:05:06;5.53;;;4.00;;
434;SDS011;204;48.942;9.256;2022-07-15T04:07:32;4.72;;;4.20;;
434;SDS011;204;48.942;9.256;2022-07-15T04:09:57;7.87;;;6.50;;
434;SDS011;204;48.942;9.256;2022-07-15T04:12:23;4.60;;;4.30;;
434;SDS011;204;48.942;9.256;2022-07-15T04:14:48;5.40;;;5.10;;
434;SDS011;204;48.942;9.256;2022-07-15T04:17:14;4.80;;;4.50;;
434;SDS011;204;48.942;9.256;2022-07-15T04:19:40;4.70;;;3.97;;
434;SDS011;204;48.942;9.256;2022-07-15T04:22:05;3.60;;;3.40;;
434;SDS011;204;48.942;9.256;2022-07-15T04:24:31;3.80;;;3.60;;
434;SDS011;204;48.942;9.256;2022-07-15T04:26:57;4.80;;;4.40;;
434;SDS011;204;48.942;9.256;2022-07-15T04:29:23;8.20;;;3.43;;
434;SDS011;204;48.942;9.256;2022-07-15T04:31:48;15.20;;;3.87;;
434;SDS011;204;48.942;9.256;2022-07-15T04:34:14;3.00;;;2.80;;
434;SDS011;204;48.942;9.256;2022-07-15T04:36:40;5.33;;;3.20;;
434;SDS011;204;48.942;9.256;2022-07-15T04:39:05;3.70;;;3.50;;
434;SDS011;204;48.942;9.256;2022-07-15T04:41:31;4.27;;;4.00;;
434;SDS011;204;48.942;9.256;2022-07-15T04:43:56;5.63;;;3.07;;
434;SDS011;204;48.942;9.256;2022-07-15T04:46:22;3.53;;;2.93;;
434;SDS011;204;48.942;9.256;2022-07-15T04:48:47;5.23;;;4.07;;
434;SDS011;204;48.942;9.256;2022-07-15T04:51:32;7.50;;;4.43;;
434;SDS011;204;48.942;9.256;2022-07-15T04:53:58;9.00;;;3.40;;
434;SDS011;204;48.942;9.256;2022-07-15T04:56:23;13.93;;;6.77;;
434;SDS011;204;48.942;9.256;2022-07-15T04:58:49;5.20;;;3.17;;
434;SDS011;204;48.942;9.256;2022-07-15T05:01:14;4.10;;;3.50;;
434;SDS011;204;48.942;9.256;2022-07-15T05:03:40;3.80;;;3.63;;
434;SDS011;204;48.942;9.256;2022-07-15T05:06:06;4.37;;;3.40;;
434;SDS011;204;48.942;9.256;2022-07-15T05:08:32;3.30;;;3.00;;
434;SDS011;204;48.942;9.256;2022-07-15T05:10:57;4.53;;;3.43;;
434;SDS011;204;48.942;9.256;2022-07-15T05:13:23;4.97;;;3.60;;
434;SDS011;204;48.942;9.256;2022-07-15T05:15:49;3.17;;;2.97;;
434;SDS011;204;48.942;9.256;2022-07-15T05:18:14;5.77;;;3.60;;
434;SDS011;204;48.942;9.256;2022-07-15T05:20:40;4.47;;;3.57;;
434;SDS011;204;48.942;9.256;2022-07-15T05:23:06;4.63;;;2.87;;
434;SDS011;204;48.942;9.256;2022-07-15T05:25:31;3.50;;;3.10;;
434;SDS011;204;48.942;9.256;2022-07-15T05:27:57;3.07;;;2.60;;
434;SDS011;204;48.942;9.256;2022-07-15T05:30:22;3.07;;;2.83;;
434;SDS011;204;48.942;9.256;2022-07-15T05:32:48;4.73;;;3.57;;
434;SDS011;204;48.942;9.256;2022-07-15T05:35:14;3.50;;;3.00;;
434;SDS011;204;48.942;9.256;2022-07-15T05:37:40;6.83;;;4.40;;
434;SDS011;204;48.942;9.256;2022-07-15T05:40:07;3.43;;;3.27;;
434;SDS011;204;48.942;9.256;2022-07-15T05:42:33;3.63;;;2.40;;
434;SDS011;204;48.942;9.256;2022-07-15T05:44:59;3.77;;;2.73;;
434;SDS011;204;48.942;9.256;2022-07-15T05:47:25;5.03;;;4.73;;
434;SDS011;204;48.942;9.256;2022-07-15T05:49:52;5.27;;;3.90;;
434;SDS011;204;48.942;9.256;2022-07-15T05:52:17;4.10;;;3.70;;
434;SDS011;204;48.942;9.256;2022-07-15T05:54:43;6.90;;;2.77;;
434;SDS011;204;48.942;9.256;2022-07-15T05:57:09;4.53;;;4.23;;
434;SDS011;204;48.942;9.256;2022-07-15T05:59:34;3.63;;;2.77;;
434;SDS011;204;48.942;9.256;2022-07-15T06:02:00;4.53;;;2.70;;
434;SDS011;204;48.942;9.256;2022-07-15T06:04:26;10.03;;;4.23;;
434;SDS011;204;48.942;9.256;2022-07-15T06:06:52;4.33;;;3.03;;
434;SDS011;204;48.942;9.256;2022-07-15T06:09:19;4.80;;;3.47;;
434;SDS011;204;48.942;9.256;2022-07-15T06:11:45;8.70;;;3.07;;
434;SDS011;204;48.942;9.256;2022-07-15T06:14:10;5.50;;;4.87;;
434;SDS011;204;48.942;9.256;2022-07-15T06:16:36;5.77;;;3.13;;
434;SDS011;204;48.942;9.256;2022-07-15T06:19:02;4.10;;;3.00;;
434;SDS011;204;48.942;9.256;2022-07-15T06:21:28;7.40;;;3.03;;
434;SDS011;204;48.942;9.256;2022-07-15T06:23:54;8.70;;;2.77;;
434;SDS011;204;48.942;9.256;2022-07-15T06:26:20;8.23;;;2.93;;
434;SDS011;204;48.942;9.256;2022-07-15T06:28:46;10.83;;;3.27;;
434;SDS011;204;48.942;9.256;2022-07-15T06:31:11;4.43;;;2.30;;
434;SDS011;204;48.942;9.256;2022-07-15T06:33:37;7.80;;;2.33;;
434;SDS011;204;48.942;9.256;2022-07-15T06:36:03;3.97;;;2.77;;
434;SDS011;204;48.942;9.256;2022-07-15T06:38:30;6.87;;;2.63;;
434;SDS011;204;48.942;9.256;2022-07-15T06:40:57;5.80;;;2.40;;
434;SDS011;204;48.942;9.256;2022-07-15T06:43:23;5.13;;;2.63;;
434;SDS011;204;48.942;9.256;2022-07-15T06:45:48;5.73;;;2.70;;
434;SDS011;204;48.942;9.256;2022-07-15T06:48:14;7.13;;;3.00;;
434;SDS011;204;48.942;9.256;2022-07-15T06:50:40;2.90;;;2.13;;
434;SDS011;204;48.942;9.256;2022-07-15T06:53:06;5.07;;;2.40;;
434;SDS011;204;48.942;9.256;2022-07-15T06:55:31;5.80;;;2.67;;
434;SDS011;204;48.942;9.256;2022-07-15T06:57:57;2.47;;;1.67;;
434;SDS011;204;48.942;9.256;2022-07-15T07:00:23;6.23;;;2.30;;
434;SDS011;204;48.942;9.256;2022-07-15T07:02:48;6.87;;;2.03;;
434;SDS011;204;48.942;9.256;2022-07-15T07:05:14;10.40;;;2.97;;
434;SDS011;204;48.942;9.256;2022-07-15T07:07:40;4.20;;;2.40;;
434;SDS011;204;48.942;9.256;2022-07-15T07:10:06;3.63;;;2.07;;
434;SDS011;204;48.942;9.256;2022-07-15T07:12:32;6.17;;;2.07;;
434;SDS011;204;48.942;9.256;2022-07-15T07:14:57;6.13;;;2.00;;
434;SDS011;204;48.942;9.256;2022-07-15T07:17:26;3.07;;;1.53;;
434;SDS011;204;48.942;9.256;2022-07-15T07:19:51;3.63;;;1.77;;
434;SDS011;204;48.942;9.256;2022-07-15T07:22:17;4.57;;;1.73;;
434;SDS011;204;48.942;9.256;2022-07-15T07:24:42;4.03;;;1.60;;
434;SDS011;204;48.942;9.256;2022-07-15T07:27:09;5.10;;;2.63;;
434;SDS011;204;48.942;9.256;2022-07-15T07:29:35;2.00;;;1.80;;
434;SDS011;204;48.942;9.256;2022-07-15T07:32:01;3.83;;;2.03;;
434;SDS011;204;48.942;9.256;2022-07-15T07:34:27;3.03;;;1.40;;
434;SDS011;204;48.942;9.256;2022-07-15T07:36:53;3.63;;;1.90;;
434;SDS011;204;48.942;9.256;2022-07-15T07:39:19;5.00;;;1.70;;
434;SDS011;204;48.942;9.256;2022-07-15T07:41:45;3.77;;;2.00;;
434;SDS011;204;48.942;9.256;2022-07-15T07:44:10;3.00;;;1.67;;
434;SDS011;204;48.942;9.256;2022-07-15T07:46:36;2.40;;;1.40;;
434;SDS011;204;48.942;9.256;2022-07-15T07:49:02;4.00;;;1.53;;
434;SDS011;204;48.942;9.256;2022-07-15T07:51:28;2.17;;;1.50;;
434;SDS011;204;48.942;9.256;2022-07-15T07:53:53;3.63;;;1.70;;
434;SDS011;204;48.942;9.256;2022-07-15T07:56:19;4.67;;;1.70;;
434;SDS011;204;48.942;9.256;2022-07-15T07:58:45;5.27;;;2.30;;
434;SDS011;204;48.942;9.256;2022-07-15T08:01:10;2.00;;;1.70;;
434;SDS011;204;48.942;9.256;2022-07-15T08:03:36;4.73;;;1.63;;
434;SDS011;204;48.942;9.256;2022-07-15T08:06:02;4.07;;;1.93;;
434;SDS011;204;48.942;9.256;2022-07-15T08:08:27;7.03;;;1.90;;
434;SDS011;204;48.942;9.256;2022-07-15T08:10:54;2.70;;;1.30;;
434;SDS011;204;48.942;9.256;2022-07-15T08:13:22;4.27;;;1.83;;
434;SDS011;204;48.942;9.256;2022-07-15T08:15:50;3.90;;;1.70;;
434;SDS011;204;48.942;9.256;2022-07-15T08:18:18;5.07;;;1.60;;
434;SDS011;204;48.942;9.256;2022-07-15T08:20:45;2.50;;;1.43;;
434;SDS011;204;48.942;9.256;2022-07-15T08:23:10;4.10;;;2.30;;
434;SDS011;204;48.942;9.256;2022-07-15T08:25:36;2.90;;;2.00;;
434;SDS011;204;48.942;9.256;2022-07-15T08:28:03;3.80;;;2.00;;
434;SDS011;204;48.942;9.256;2022-07-15T08:30:30;2.50;;;1.60;;
434;SDS011;204;48.942;9.256;2022-07-15T08:32:57;5.80;;;1.73;;
434;SDS011;204;48.942;9.256;2022-07-15T08:35:23;3.33;;;1.90;;
434;SDS011;204;48.942;9.256;2022-07-15T08:37:49;2.83;;;1.93;;
434;SDS011;204;48.942;9.256;2022-07-15T08:40:15;4.67;;;1.50;;
434;SDS011;204;48.942;9.256;2022-07-15T08:42:41;1.73;;;1.33;;
434;SDS011;204;48.942;9.256;2022-07-15T08:45:10;1.87;;;1.10;;
434;SDS011;204;48.942;9.256;2022-07-15T08:47:38;4.40;;;1.70;;
434;SDS011;204;48.942;9.256;2022-07-15T08:50:05;4.33;;;1.53;;
434;SDS011;204;48.942;9.256;2022-07-15T08:52:33;2.33;;;1.50;;
434;SDS011;204;48.942;9.256;2022-07-15T08:55:00;3.80;;;1.90;;
434;SDS011;204;48.942;9.256;2022-07-15T08:57:26;4.40;;;1.50;;
434;SDS011;204;48.942;9.256;2022-07-15T08:59:52;6.23;;;2.20;;
434;SDS011;204;48.942;9.256;2022-07-15T09:02:18;2.13;;;1.37;;
434;SDS011;204;48.942;9.256;2022-07-15T09:07:51;2.93;;;1.67;;
434;SDS011;204;48.942;9.256;2022-07-15T09:10:20;4.37;;;1.70;;
434;SDS011;204;48.942;9.256;2022-07-15T09:12:50;2.73;;;2.20;;
434;SDS011;204;48.942;9.256;2022-07-15T09:15:33;4.27;;;1.70;;
434;SDS011;204;48.942;9.256;2022-07-15T09:18:04;3.00;;;1.80;;
434;SDS011;204;48.942;9.256;2022-07-15T09:20:38;2.87;;;2.00;;
434;SDS011;204;48.942;9.256;2022-07-15T09:23:05;2.80;;;1.63;;
434;SDS011;204;48.942;9.256;2022-07-15T09:25:32;2.00;;;1.60;;
434;SDS011;204;48.942;9.256;2022-07-15T09:28:02;2.73;;;1.97;;
434;SDS011;204;48.942;9.256;2022-07-15T09:30:40;2.53;;;1.70;;
434;SDS011;204;48.942;9.256;2022-07-15T09:33:26;4.97;;;1.87;;
434;SDS011;204;48.942;9.256;2022-07-15T09:38:38;3.33;;;2.00;;
434;SDS011;204;48.942;9.256;2022-07-15T09:41:10;2.50;;;1.70;;
434;SDS011;204;48.942;9.256;2022-07-15T09:43:55;6.47;;;1.80;;
434;SDS011;204;48.942;9.256;2022-07-15T09:46:23;3.50;;;2.20;;
434;SDS011;204;48.942;9.256;2022-07-15T09:48:52;2.10;;;1.90;;
434;SDS011;204;48.942;9.256;2022-07-15T09:51:18;4.13;;;2.40;;
434;SDS011;204;48.942;9.256;2022-07-15T09:53:45;2.80;;;2.10;;
434;SDS011;204;48.942;9.256;2022-07-15T09:56:12;4.90;;;2.07;;
434;SDS011;204;48.942;9.256;2022-07-15T09:58:46;5.90;;;1.77;;
434;SDS011;204;48.942;9.256;2022-07-15T10:01:12;4.33;;;2.43;;
434;SDS011;204;48.942;9.256;2022-07-15T10:03:37;3.57;;;2.03;;
434;SDS011;204;48.942;9.256;2022-07-15T10:06:04;2.67;;;2.07;;
434;SDS011;204;48.942;9.256;2022-07-15T10:08:31;4.67;;;1.90;;
434;SDS011;204;48.942;9.256;2022-07-15T10:10:58;4.80;;;3.10;;
434;SDS011;204;48.942;9.256;2022-07-15T10:18:44;3.93;;;1.80;;
434;SDS011;204;48.942;9.256;2022-07-15T10:24:00;5.73;;;2.23;;
434;SDS011;204;48.942;9.256;2022-07-15T10:26:40;5.63;;;2.50;;
434;SDS011;204;48.942;9.256;2022-07-15T10:29:29;4.77;;;2.43;;
434;SDS011;204;48.942;9.256;2022-07-15T10:31:56;6.30;;;2.63;;
434;SDS011;204;48.942;9.256;2022-07-15T10:34:26;5.67;;;2.60;;
434;SDS011;204;48.942;9.256;2022-07-15T10:37:04;3.47;;;2.70;;
434;SDS011;204;48.942;9.256;2022-07-15T10:42:17;3.73;;;2.23;;
434;SDS011;204;48.942;9.256;2022-07-15T10:47:27;3.03;;;2.50;;
434;SDS011;204;48.942;9.256;2022-07-15T10:49:53;2.60;;;1.97;;
434;SDS011;204;48.942;9.256;2022-07-15T10:52:20;3.20;;;2.00;;
434;SDS011;204;48.942;9.256;2022-07-15T10:57:21;3.47;;;2.67;;
434;SDS011;204;48.942;9.256;2022-07-15T11:00:05;4.20;;;2.40;;
434;SDS011;204;48.942;9.256;2022-07-15T11:03:07;3.47;;;2.10;;
434;SDS011;204;48.942;9.256;2022-07-15T11:06:19;5.20;;;2.40;;
434;SDS011;204;48.942;9.256;2022-07-15T11:10:56;3.60;;;2.20;;
434;SDS011;204;48.942;9.256;2022-07-15T11:13:32;4.30;;;2.17;;
434;SDS011;204;48.942;9.256;2022-07-15T11:15:58;9.53;;;2.70;;
434;SDS011;204;48.942;9.256;2022-07-15T11:18:25;4.30;;;2.50;;
434;SDS011;204;48.942;9.256;2022-07-15T11:20:50;2.33;;;2.10;;
434;SDS011;204;48.942;9.256;2022-07-15T11:23:17;7.40;;;2.63;;
434;SDS011;204;48.942;9.256;2022-07-15T11:25:45;5.50;;;2.43;;
434;SDS011;204;48.942;9.256;2022-07-15T11:28:13;2.90;;;2.00;;
434;SDS011;204;48.942;9.256;2022-07-15T11:33:08;4.13;;;2.00;;
434;SDS011;204;48.942;9.256;2022-07-15T11:35:43;2.30;;;2.10;;
434;SDS011;204;48.942;9.256;2022-07-15T11:38:13;2.13;;;2.00;;
434;SDS011;204;48.942;9.256;2022-07-15T11:40:43;2.70;;;1.80;;
434;SDS011;204;48.942;9.256;2022-07-15T11:43:29;2.87;;;2.60;;
434;SDS011;204;48.942;9.256;2022-07-15T11:46:14;3.13;;;2.07;;
434;SDS011;204;48.942;9.256;2022-07-15T11:48:40;3.47;;;2.23;;
434;SDS011;204;48.942;9.256;2022-07-15T11:51:08;3.10;;;2.40;;
434;SDS011;204;48.942;9.256;2022-07-15T11:53:44;3.03;;;2.20;;
434;SDS011;204;48.942;9.256;2022-07-15T11:56:13;3.70;;;2.40;;
434;SDS011;204;48.942;9.256;2022-07-15T11:58:40;2.37;;;2.17;;
434;SDS011;204;48.942;9.256;2022-07-15T12:01:11;3.20;;;2.83;;
434;SDS011;204;48.942;9.256;2022-07-15T12:03:45;7.47;;;3.07;;
434;SDS011;204;48.942;9.256;2022-07-15T12:08:55;3.53;;;2.73;;
434;SDS011;204;48.942;9.256;2022-07-15T12:11:24;4.47;;;2.30;;
434;SDS011;204;48.942;9.256;2022-07-15T12:13:51;2.60;;;2.40;;
434;SDS011;204;48.942;9.256;2022-07-15T12:16:20;5.43;;;2.77;;
434;SDS011;204;48.942;9.256;2022-07-15T12:18:52;7.90;;;2.63;;
434;SDS011;204;48.942;9.256;2022-07-15T12:21:22;2.60;;;2.10;;
434;SDS011;204;48.942;9.256;2022-07-15T12:29:17;2.57;;;2.30;;
434;SDS011;204;48.942;9.256;2022-07-15T12:31:50;2.67;;;2.07;;
434;SDS011;204;48.942;9.256;2022-07-15T12:34:16;3.70;;;2.00;;
434;SDS011;204;48.942;9.256;2022-07-15T12:36:42;4.50;;;2.20;;
434;SDS011;204;48.942;9.256;2022-07-15T12:39:13;2.07;;;1.97;;
434;SDS011;204;48.942;9.256;2022-07-15T12:41:41;3.60;;;1.93;;
434;SDS011;204;48.942;9.256;2022-07-15T12:44:08;5.00;;;2.27;;
434;SDS011;204;48.942;9.256;2022-07-15T12:54:43;6.57;;;1.93;;
434;SDS011;204;48.942;9.256;2022-07-15T13:05:27;2.23;;;2.03;;
434;SDS011;204;48.942;9.256;2022-07-15T13:07:55;5.47;;;2.80;;
434;SDS011;204;48.942;9.256;2022-07-15T13:10:21;4.43;;;2.40;;
434;SDS011;204;48.942;9.256;2022-07-15T13:12:47;6.20;;;2.17;;
434;SDS011;204;48.942;9.256;2022-07-15T13:15:12;5.60;;;2.47;;
434;SDS011;204;48.942;9.256;2022-07-15T13:17:38;2.83;;;1.80;;
434;SDS011;204;48.942;9.256;2022-07-15T13:20:04;3.93;;;2.43;;
434;SDS011;204;48.942;9.256;2022-07-15T13:22:31;2.70;;;2.50;;
434;SDS011;204;48.942;9.256;2022-07-15T13:24:57;2.60;;;2.40;;
434;SDS011;204;48.942;9.256;2022-07-15T13:27:23;10.07;;;2.40;;
434;SDS011;204;48.942;9.256;2022-07-15T13:29:49;3.40;;;1.90;;
434;SDS011;204;48.942;9.256;2022-07-15T13:32:15;7.70;;;2.77;;
434;SDS011;204;48.942;9.256;2022-07-15T13:34:40;2.87;;;2.40;;
434;SDS011;204;48.942;9.256;2022-07-15T13:37:06;4.50;;;2.00;;
434;SDS011;204;48.942;9.256;2022-07-15T13:39:31;4.30;;;2.47;;
434;SDS011;204;48.942;9.256;2022-07-15T13:41:57;6.43;;;6.03;;
434;SDS011;204;48.942;9.256;2022-07-15T13:44:23;3.03;;;2.77;;
434;SDS011;204;48.942;9.256;2022-07-15T13:46:48;4.40;;;2.27;;
434;SDS011;204;48.942;9.256;2022-07-15T13:49:14;5.77;;;2.20;;
434;SDS011;204;48.942;9.256;2022-07-15T13:51:39;2.20;;;2.00;;
434;SDS011;204;48.942;9.256;2022-07-15T13:54:06;6.10;;;2.27;;
434;SDS011;204;48.942;9.256;2022-07-15T13:56:33;2.30;;;2.07;;
434;SDS011;204;48.942;9.256;2022-07-15T13:58:58;2.97;;;2.30;;
434;SDS011;204;48.942;9.256;2022-07-15T14:01:26;6.83;;;2.30;;
434;SDS011;204;48.942;9.256;2022-07-15T14:03:53;5.60;;;2.10;;
434;SDS011;204;48.942;9.256;2022-07-15T14:06:19;3.07;;;1.60;;
434;SDS011;204;48.942;9.256;2022-07-15T14:08:45;3.17;;;2.67;;
434;SDS011;204;48.942;9.256;2022-07-15T14:11:10;3.83;;;2.47;;
434;SDS011;204;48.942;9.256;2022-07-15T14:13:36;3.50;;;2.60;;
434;SDS011;204;48.942;9.256;2022-07-15T14:16:02;4.77;;;2.30;;
434;SDS011;204;48.942;9.256;2022-07-15T14:18:28;2.50;;;2.30;;
434;SDS011;204;48.942;9.256;2022-07-15T14:21:12;3.70;;;2.10;;
434;SDS011;204;48.942;9.256;2022-07-15T14:23:39;4.10;;;2.97;;
434;SDS011;204;48.942;9.256;2022-07-15T14:26:05;3.30;;;2.60;;
434;SDS011;204;48.942;9.256;2022-07-15T14:28:31;4.27;;;2.90;;
434;SDS011;204;48.942;9.256;2022-07-15T14:30:56;6.33;;;2.80;;
434;SDS011;204;48.942;9.256;2022-07-15T14:33:22;2.60;;;2.20;;
434;SDS011;204;48.942;9.256;2022-07-15T14:35:49;4.50;;;2.73;;
434;SDS011;204;48.942;9.256;2022-07-15T14:38:14;3.50;;;2.63;;
434;SDS011;204;48.942;9.256;2022-07-15T14:40:40;2.23;;;2.03;;
434;SDS011;204;48.942;9.256;2022-07-15T14:43:06;4.07;;;2.40;;
434;SDS011;204;48.942;9.256;2022-07-15T14:45:31;1.77;;;1.67;;
434;SDS011;204;48.942;9.256;2022-07-15T14:47:57;3.10;;;2.50;;
434;SDS011;204;48.942;9.256;2022-07-15T14:50:22;4.43;;;1.80;;
434;SDS011;204;48.942;9.256;2022-07-15T14:52:48;2.90;;;2.70;;
434;SDS011;204;48.942;9.256;2022-07-15T14:55:14;6.63;;;2.47;;
434;SDS011;204;48.942;9.256;2022-07-15T14:57:39;3.47;;;1.93;;
434;SDS011;204;48.942;9.256;2022-07-15T15:00:05;6.00;;;2.40;;
434;SDS011;204;48.942;9.256;2022-07-15T15:02:31;2.90;;;2.33;;
434;SDS011;204;48.942;9.256;2022-07-15T15:04:57;3.53;;;2.60;;
434;SDS011;204;48.942;9.256;2022-07-15T15:07:23;3.57;;;2.20;;
434;SDS011;204;48.942;9.256;2022-07-15T15:09:49;2.87;;;1.73;;
434;SDS011;204;48.942;9.256;2022-07-15T15:12:14;3.63;;;2.50;;
434;SDS011;204;48.942;9.256;2022-07-15T15:14:40;3.17;;;2.60;;
434;SDS011;204;48.942;9.256;2022-07-15T15:17:06;3.90;;;2.37;;
434;SDS011;204;48.942;9.256;2022-07-15T15:19:32;4.13;;;2.40;;
434;SDS011;204;48.942;9.256;2022-07-15T15:21:58;4.10;;;2.23;;
434;SDS011;204;48.942;9.256;2022-07-15T15:24:23;3.10;;;2.20;;
434;SDS011;204;48.942;9.256;2022-07-15T15:26:49;3.70;;;2.13;;
434;SDS011;204;48.942;9.256;2022-07-15T15:29:15;3.17;;;2.23;;
434;SDS011;204;48.942;9.256;2022-07-15T15:31:41;4.50;;;3.17;;
434;SDS011;204;48.942;9.256;2022-07-15T15:34:07;2.70;;;2.10;;
434;SDS011;204;48.942;9.256;2022-07-15T15:36:33;2.93;;;2.30;;
434;SDS011;204;48.942;9.256;2022-07-15T15:38:58;3.33;;;2.63;;
434;SDS011;204;48.942;9.256;2022-07-15T15:41:24;3.73;;;3.10;;
434;SDS011;204;48.942;9.256;2022-07-15T15:43:51;4.60;;;2.80;;
434;SDS011;204;48.942;9.256;2022-07-15T15:46:17;3.77;;;2.90;;
434;SDS011;204;48.942;9.256;2022-07-15T15:48:43;2.60;;;2.20;;
434;SDS011;204;48.942;9.256;2022-07-15T15:51:08;2.17;;;2.00;;
434;SDS011;204;48.942;9.256;2022-07-15T15:53:34;3.50;;;2.10;;
434;SDS011;204;48.942;9.256;2022-07-15T15:56:00;1.90;;;1.80;;
434;SDS011;204;48.942;9.256;2022-07-15T15:58:26;2.47;;;2.27;;
434;SDS011;204;48.942;9.256;2022-07-15T16:00:52;2.73;;;2.53;;
434;SDS011;204;48.942;9.256;2022-07-15T16:03:17;3.27;;;2.30;;
434;SDS011;204;48.942;9.256;2022-07-15T16:05:43;3.40;;;2.20;;
434;SDS011;204;48.942;9.256;2022-07-15T16:08:11;2.93;;;2.30;;
434;SDS011;204;48.942;9.256;2022-07-15T16:10:36;4.23;;;2.00;;
434;SDS011;204;48.942;9.256;2022-07-15T16:13:02;2.40;;;2.20;;
434;SDS011;204;48.942;9.256;2022-07-15T16:15:28;5.37;;;2.27;;
434;SDS011;204;48.942;9.256;2022-07-15T16:17:53;8.70;;;5.20;;
434;SDS011;204;48.942;9.256;2022-07-15T16:20:19;3.80;;;2.80;;
434;SDS011;204;48.942;9.256;2022-07-15T16:22:45;1.97;;;1.87;;
434;SDS011;204;48.942;9.256;2022-07-15T16:27:47;3.53;;;2.07;;
434;SDS011;204;48.942;9.256;2022-07-15T16:30:13;4.00;;;1.97;;
434;SDS011;204;48.942;9.256;2022-07-15T16:32:39;4.53;;;2.07;;
434;SDS011;204;48.942;9.256;2022-07-15T16:35:04;2.30;;;2.10;;
434;SDS011;204;48.942;9.256;2022-07-15T16:37:30;3.17;;;1.97;;